createdAt,value
2022-09-17T00:00:28.331Z,25.13
2022-09-17T00:02:57.232Z,32.90
2022-09-17T00:05:25.078Z,31.27
2022-09-17T00:07:53.520Z,29.27
2022-09-17T00:10:23.131Z,29.23
2022-09-17T00:12:51.362Z,25.20
2022-09-17T00:15:19.277Z,33.50
2022-09-17T00:17:46.805Z,25.40
2022-09-17T00:20:15.674Z,25.00
2022-09-17T00:22:43.212Z,22.97
2022-09-17T00:25:10.740Z,23.43
2022-09-17T00:27:38.299Z,21.03
2022-09-17T00:30:06.986Z,28.60
2022-09-17T00:32:34.574Z,23.30
2022-09-17T00:35:02.085Z,26.30
2022-09-17T00:37:30.981Z,18.53
2022-09-17T00:39:58.628Z,23.70
2022-09-17T00:42:26.299Z,28.20
2022-09-17T00:44:55.020Z,35.87
2022-09-17T00:47:28.126Z,38.37
2022-09-17T00:50:00.418Z,33.20
2022-09-17T00:52:34.074Z,21.83
2022-09-17T00:55:08.858Z,32.73
2022-09-17T00:57:36.761Z,25.30
2022-09-17T01:00:07.810Z,30.40
2022-09-17T01:02:35.591Z,25.57
2022-09-17T01:05:03.261Z,19.43
2022-09-17T01:07:54.562Z,25.33
2022-09-17T01:10:40.202Z,28.90
2022-09-17T01:13:20.681Z,21.43
2022-09-17T01:15:55.960Z,22.00
2022-09-17T01:18:36.672Z,20.57
2022-09-17T01:21:34.789Z,20.63
2022-09-17T01:24:44.669Z,21.70
2022-09-17T01:27:56.094Z,23.00
2022-09-17T01:30:53.754Z,20.73
2022-09-17T01:33:30.150Z,17.63
2022-09-17T01:36:11.113Z,21.17
2022-09-17T01:38:47.002Z,19.33
2022-09-17T01:41:23.654Z,19.93
2022-09-17T01:43:57.037Z,31.63
2022-09-17T01:46:32.399Z,26.13
2022-09-17T01:49:03.586Z,23.43
2022-09-17T01:51:37.195Z,20.63
2022-09-17T01:54:08.780Z,20.30
2022-09-17T01:56:41.366Z,25.20
2022-09-17T01:59:16.383Z,22.97
2022-09-17T02:01:51.575Z,25.67
2022-09-17T02:04:24.129Z,20.13
2022-09-17T02:06:58.186Z,26.53
2022-09-17T02:09:30.964Z,27.47
2022-09-17T02:12:03.947Z,28.83
2022-09-17T02:14:37.069Z,20.43
2022-09-17T02:17:11.404Z,24.57
2022-09-17T02:19:41.093Z,19.33
2022-09-17T02:22:19.646Z,25.63
2022-09-17T02:24:53.667Z,22.33
2022-09-17T02:27:29.146Z,17.67
2022-09-17T02:29:56.750Z,29.17
2022-09-17T02:32:25.809Z,20.77
2022-09-17T02:34:53.402Z,22.60
2022-09-17T02:37:20.976Z,19.17
2022-09-17T02:39:48.613Z,25.70
2022-09-17T02:42:23.631Z,19.57
2022-09-17T02:45:01.242Z,24.27
2022-09-17T02:48:07.971Z,18.43
2022-09-17T02:50:47.588Z,17.77
2022-09-17T02:53:28.610Z,24.97
2022-09-17T02:56:03.394Z,18.30
2022-09-17T02:58:35.102Z,18.73
2022-09-17T03:01:08.967Z,24.70
2022-09-17T03:03:41.611Z,30.43
2022-09-17T03:06:09.227Z,21.03
2022-09-17T03:08:40.063Z,17.83
2022-09-17T03:11:09.128Z,25.23
2022-09-17T03:13:37.227Z,27.20
2022-09-17T03:16:05.253Z,17.13
2022-09-17T03:18:33.355Z,23.03
2022-09-17T03:21:02.322Z,21.90
2022-09-17T03:23:29.902Z,25.70
2022-09-17T03:25:57.473Z,18.50
2022-09-17T03:28:26.406Z,22.20
2022-09-17T03:30:54.782Z,26.30
2022-09-17T03:33:22.968Z,23.53
2022-09-17T03:35:50.551Z,18.77
2022-09-17T03:38:19.438Z,23.30
2022-09-17T03:40:57.998Z,23.93
2022-09-17T03:43:25.601Z,20.70
2022-09-17T03:45:53.130Z,20.33
2022-09-17T03:48:21.208Z,29.43
2022-09-17T03:50:48.774Z,22.83
2022-09-17T03:53:16.436Z,24.30
2022-09-17T03:55:45.512Z,18.70
2022-09-17T03:58:13.190Z,22.03
2022-09-17T04:00:40.755Z,23.40
2022-09-17T04:03:08.390Z,24.07
2022-09-17T04:05:35.976Z,19.57
2022-09-17T04:08:03.731Z,21.03
2022-09-17T04:10:31.241Z,19.77
2022-09-17T04:13:00.121Z,22.43
2022-09-17T04:15:27.670Z,21.33
2022-09-17T04:17:57.650Z,27.83
2022-09-17T04:20:25.705Z,17.60
2022-09-17T04:22:53.353Z,20.20
2022-09-17T04:25:21.135Z,21.37
2022-09-17T04:27:48.690Z,18.93
2022-09-17T04:30:18.130Z,17.73
2022-09-17T04:32:46.634Z,24.83
2022-09-17T04:35:14.771Z,22.67
2022-09-17T04:37:42.345Z,20.77
2022-09-17T04:40:11.123Z,17.73
2022-09-17T04:42:39.027Z,23.50
2022-09-17T04:45:07.562Z,16.43
2022-09-17T04:47:39.550Z,15.30
2022-09-17T04:50:07.743Z,23.13
2022-09-17T04:52:35.289Z,18.93
2022-09-17T04:55:02.818Z,26.77
2022-09-17T04:57:30.326Z,22.30
2022-09-17T04:59:57.841Z,20.37
2022-09-17T05:02:25.519Z,15.63
2022-09-17T05:04:55.100Z,24.87
2022-09-17T05:07:22.966Z,18.53
2022-09-17T05:09:50.530Z,20.90
2022-09-17T05:12:18.050Z,23.27
2022-09-17T05:14:45.578Z,18.47
2022-09-17T05:17:13.174Z,16.10
2022-09-17T05:19:40.849Z,26.07
2022-09-17T05:22:09.713Z,16.87
2022-09-17T05:24:39.277Z,16.90
2022-09-17T05:27:06.987Z,23.57
2022-09-17T05:29:34.525Z,24.53
2022-09-17T05:32:02.573Z,20.33
2022-09-17T05:34:30.086Z,14.67
2022-09-17T05:36:57.649Z,18.60
2022-09-17T05:39:26.562Z,18.57
2022-09-17T05:41:54.196Z,18.27
2022-09-17T05:44:22.140Z,17.83
2022-09-17T05:46:49.734Z,33.03
2022-09-17T05:49:17.325Z,18.50
2022-09-17T05:51:45.035Z,16.30
2022-09-17T05:54:12.606Z,15.87
2022-09-17T05:56:41.508Z,20.27
2022-09-17T05:59:09.026Z,20.90
2022-09-17T06:01:36.613Z,22.60
2022-09-17T06:04:04.577Z,16.37
2022-09-17T06:06:32.726Z,20.33
2022-09-17T06:09:00.980Z,17.37
2022-09-17T06:11:28.589Z,25.53
2022-09-17T06:13:57.521Z,18.10
2022-09-17T06:16:25.604Z,15.03
2022-09-17T06:18:53.685Z,16.30
2022-09-17T06:21:22.864Z,19.17
2022-09-17T06:23:50.777Z,13.57
2022-09-17T06:26:18.962Z,11.60
2022-09-17T06:28:46.721Z,13.90
2022-09-17T06:31:15.751Z,12.30
2022-09-17T06:33:43.322Z,17.63
2022-09-17T06:36:14.628Z,17.10
2022-09-17T06:38:43.062Z,16.43
2022-09-17T06:41:10.608Z,11.00
2022-09-17T06:43:38.134Z,18.83
2022-09-17T06:46:08.987Z,13.57
2022-09-17T06:48:39.145Z,16.20
2022-09-17T06:51:08.606Z,10.47
2022-09-17T06:53:37.818Z,15.80
2022-09-17T06:56:07.164Z,13.63
2022-09-17T06:58:37.024Z,15.47
2022-09-17T07:03:32.135Z,11.30
2022-09-17T07:06:01.245Z,11.13
2022-09-17T07:08:28.793Z,13.87
2022-09-17T07:10:57.207Z,8.80
2022-09-17T07:13:25.371Z,12.70
2022-09-17T07:15:54.833Z,16.93
2022-09-17T07:18:23.341Z,14.97
2022-09-17T07:20:54.992Z,14.17
2022-09-17T07:23:24.941Z,16.27
2022-09-17T07:25:53.434Z,14.73
2022-09-17T07:28:21.073Z,15.63
2022-09-17T07:30:48.788Z,11.67
2022-09-17T07:33:17.270Z,19.43
2022-09-17T07:35:44.797Z,17.13
2022-09-17T07:38:12.675Z,15.63
2022-09-17T07:40:41.886Z,14.53
2022-09-17T07:43:09.990Z,16.43
2022-09-17T07:45:37.875Z,10.27
2022-09-17T07:48:05.567Z,14.67
2022-09-17T07:50:33.362Z,14.13
2022-09-17T07:53:00.930Z,6.93
2022-09-17T07:55:28.475Z,16.67
2022-09-17T07:57:57.426Z,9.00
2022-09-17T08:00:25.298Z,10.33
2022-09-17T08:02:56.170Z,11.83
2022-09-17T08:05:24.603Z,11.30
2022-09-17T08:07:52.402Z,13.27
2022-09-17T08:10:21.527Z,13.13
2022-09-17T08:12:49.541Z,12.40
2022-09-17T08:15:19.753Z,6.50
2022-09-17T08:17:47.766Z,11.90
2022-09-17T08:20:16.567Z,8.27
2022-09-17T08:22:49.281Z,11.50
2022-09-17T08:25:17.850Z,8.70
2022-09-17T08:27:45.735Z,11.43
2022-09-17T08:30:13.409Z,9.30
2022-09-17T08:32:42.297Z,6.63
2022-09-17T08:35:11.597Z,8.70
2022-09-17T08:37:39.128Z,7.67
2022-09-17T08:40:07.748Z,11.60
2022-09-17T08:42:42.568Z,16.27
2022-09-17T08:45:18.941Z,11.17
2022-09-17T08:47:49.167Z,6.10
2022-09-17T08:50:28.853Z,6.43
2022-09-17T08:53:16.191Z,12.23
2022-09-17T08:55:47.042Z,22.40
2022-09-17T08:58:30.581Z,16.03
2022-09-17T09:01:08.710Z,13.70
2022-09-17T09:03:52.073Z,14.20
2022-09-17T09:06:25.429Z,14.10
2022-09-17T09:08:58.827Z,16.60
2022-09-17T09:11:30.967Z,11.60
2022-09-17T09:14:05.438Z,11.20
2022-09-17T09:16:35.129Z,8.00
2022-09-17T09:19:15.747Z,11.60
2022-09-17T09:21:53.958Z,8.10
2022-09-17T09:24:26.099Z,11.43
2022-09-17T09:27:02.597Z,10.53
2022-09-17T09:29:43.079Z,8.07
2022-09-17T09:32:22.399Z,12.27
2022-09-17T09:34:52.389Z,10.83
2022-09-17T09:37:24.805Z,14.50
2022-09-17T09:39:54.875Z,15.27
2022-09-17T09:42:30.210Z,6.90
2022-09-17T09:45:04.988Z,13.33
2022-09-17T09:47:54.553Z,8.30
2022-09-17T09:51:01.952Z,10.10
2022-09-17T09:53:33.118Z,10.17
2022-09-17T09:56:11.853Z,7.97
2022-09-17T09:58:40.653Z,7.37
2022-09-17T10:01:13.902Z,6.60
2022-09-17T10:03:43.942Z,19.83
2022-09-17T10:06:14.214Z,15.57
2022-09-17T10:08:43.689Z,12.53
2022-09-17T10:11:21.934Z,10.53
2022-09-17T10:13:49.989Z,11.60
2022-09-17T10:16:19.416Z,9.43
2022-09-17T10:18:47.881Z,10.40
2022-09-17T10:21:24.086Z,10.23
2022-09-17T10:23:51.983Z,7.37
2022-09-17T10:26:25.521Z,8.13
2022-09-17T10:28:56.045Z,9.40
2022-09-17T10:31:24.210Z,7.47
2022-09-17T10:33:54.230Z,5.67
2022-09-17T10:39:30.894Z,7.63
2022-09-17T10:41:59.977Z,7.90
2022-09-17T10:44:29.116Z,4.87
2022-09-17T10:47:04.052Z,6.70
2022-09-17T10:49:40.089Z,6.73
2022-09-17T10:52:11.898Z,7.83
2022-09-17T10:55:08.281Z,9.40
2022-09-17T10:58:12.351Z,7.90
2022-09-17T11:01:01.237Z,5.00
2022-09-17T11:04:09.170Z,8.50
2022-09-17T11:07:00.305Z,7.50
2022-09-17T11:09:40.299Z,5.20
2022-09-17T11:12:27.065Z,7.40
2022-09-17T11:15:02.689Z,6.00
2022-09-17T11:17:50.107Z,5.33
2022-09-17T11:20:33.489Z,5.27
2022-09-17T11:23:15.498Z,7.00
2022-09-17T11:25:50.228Z,4.97
2022-09-17T11:28:43.038Z,9.07
2022-09-17T11:31:24.419Z,7.70
2022-09-17T11:34:23.691Z,10.77
2022-09-17T11:36:58.211Z,7.00
2022-09-17T11:39:34.085Z,6.83
2022-09-17T11:42:07.570Z,4.70
2022-09-17T11:44:41.990Z,3.60
2022-09-17T11:47:15.765Z,3.37
2022-09-17T11:49:48.541Z,10.67
2022-09-17T11:52:21.757Z,4.23
2022-09-17T11:54:54.042Z,11.70
2022-09-17T11:57:26.446Z,3.90
2022-09-17T12:00:01.552Z,7.30
2022-09-17T12:02:43.645Z,4.30
2022-09-17T12:05:18.138Z,6.10
2022-09-17T12:07:51.399Z,6.30
2022-09-17T12:10:44.807Z,6.83
2022-09-17T12:13:20.622Z,5.60
2022-09-17T12:15:53.597Z,5.27
2022-09-17T12:18:35.858Z,4.70
2022-09-17T12:21:07.931Z,4.50
2022-09-17T12:23:41.191Z,6.10
2022-09-17T12:26:21.231Z,5.90
2022-09-17T12:28:58.844Z,5.27
2022-09-17T12:31:37.672Z,6.03
2022-09-17T12:34:23.639Z,6.63
2022-09-17T12:36:58.874Z,10.97
2022-09-17T12:39:54.756Z,9.57
2022-09-17T12:42:36.865Z,16.40
2022-09-17T12:45:31.329Z,6.93
2022-09-17T12:48:30.762Z,14.70
2022-09-17T12:51:12.116Z,8.60
2022-09-17T12:53:46.374Z,7.60
2022-09-17T12:56:27.809Z,6.70
2022-09-17T12:59:06.856Z,6.97
2022-09-17T13:01:41.789Z,5.87
2022-09-17T13:04:43.547Z,6.00
2022-09-17T13:07:38.961Z,7.80
2022-09-17T13:10:27.246Z,6.80
2022-09-17T13:13:03.897Z,6.40
2022-09-17T13:15:40.232Z,7.30
2022-09-17T13:18:27.078Z,6.43
2022-09-17T13:21:14.151Z,6.30
2022-09-17T13:23:44.719Z,7.53
2022-09-17T13:26:17.171Z,7.67
2022-09-17T13:29:00.315Z,7.43
2022-09-17T13:31:49.944Z,12.40
2022-09-17T13:34:32.862Z,10.90
2022-09-17T13:37:03.045Z,10.50
2022-09-17T13:39:43.358Z,10.60
2022-09-17T13:42:24.172Z,9.70
2022-09-17T13:45:03.227Z,11.50
2022-09-17T13:47:32.342Z,11.33
2022-09-17T13:50:04.485Z,10.50
2022-09-17T13:52:40.098Z,10.23
2022-09-17T13:55:08.847Z,10.20
2022-09-17T13:57:49.759Z,10.73
2022-09-17T14:00:48.698Z,11.77
2022-09-17T14:03:54.472Z,11.13
2022-09-17T14:06:53.661Z,10.73
2022-09-17T14:09:52.454Z,12.57
2022-09-17T14:12:56.032Z,11.37
2022-09-17T14:15:54.726Z,11.53
2022-09-17T14:18:43.579Z,12.80
2022-09-17T14:21:19.906Z,12.03
2022-09-17T14:23:57.944Z,12.63
2022-09-17T14:26:58.622Z,11.77
2022-09-17T14:29:43.585Z,12.53
2022-09-17T14:32:16.949Z,12.40
2022-09-17T14:34:44.864Z,12.57
2022-09-17T14:37:16.026Z,11.30
2022-09-17T14:39:43.795Z,12.20
2022-09-17T14:42:19.831Z,11.50
2022-09-17T14:44:59.089Z,10.70
2022-09-17T14:47:27.474Z,11.70
2022-09-17T14:49:55.437Z,11.83
2022-09-17T14:52:28.545Z,11.80
2022-09-17T14:55:21.354Z,12.17
2022-09-17T14:57:53.638Z,12.70
2022-09-17T15:00:24.206Z,11.97
2022-09-17T15:02:55.500Z,12.10
2022-09-17T15:05:27.039Z,12.00
2022-09-17T15:08:13.804Z,11.10
2022-09-17T15:10:48.952Z,11.10
2022-09-17T15:13:21.720Z,11.27
2022-09-17T15:15:55.197Z,10.30
2022-09-17T15:18:30.458Z,10.20
2022-09-17T15:21:00.874Z,10.87
2022-09-17T15:23:31.886Z,12.87
2022-09-17T15:26:01.201Z,11.13
2022-09-17T15:28:34.994Z,12.13
2022-09-17T15:31:02.845Z,11.83
2022-09-17T15:33:32.487Z,11.70
2022-09-17T15:36:10.791Z,11.17
2022-09-17T15:38:39.117Z,10.77
2022-09-17T15:41:28.998Z,11.80
2022-09-17T15:44:28.402Z,11.83
2022-09-17T15:46:56.720Z,13.03
2022-09-17T15:49:34.786Z,12.70
2022-09-17T15:52:30.404Z,12.00
2022-09-17T15:54:58.087Z,13.50
2022-09-17T15:57:27.341Z,11.83
2022-09-17T15:59:56.791Z,12.73
2022-09-17T16:02:29.910Z,11.30
2022-09-17T16:05:44.998Z,11.70
2022-09-17T16:08:20.363Z,12.47
2022-09-17T16:10:48.241Z,12.80
2022-09-17T16:13:15.759Z,13.07
2022-09-17T16:15:44.845Z,12.77
2022-09-17T16:18:14.750Z,12.90
2022-09-17T16:20:42.760Z,11.00
2022-09-17T16:23:10.556Z,12.40
2022-09-17T16:25:40.231Z,12.70
2022-09-17T16:28:12.418Z,12.77
2022-09-17T16:30:44.312Z,13.27
2022-09-17T16:33:14.403Z,19.57
2022-09-17T16:35:42.654Z,13.33
2022-09-17T16:38:12.797Z,14.47
2022-09-17T16:40:47.511Z,19.17
2022-09-17T16:43:15.243Z,13.77
2022-09-17T16:45:42.813Z,13.80
2022-09-17T16:48:10.719Z,13.60
2022-09-17T16:50:42.927Z,14.00
2022-09-17T16:53:10.453Z,14.53
2022-09-17T16:55:37.989Z,15.97
2022-09-17T16:58:05.524Z,14.50
2022-09-17T17:00:33.114Z,25.63
2022-09-17T17:03:00.719Z,17.13
2022-09-17T17:05:28.862Z,18.87
2022-09-17T17:07:59.678Z,13.47
2022-09-17T17:10:28.799Z,15.23
2022-09-17T17:12:57.427Z,14.67
2022-09-17T17:15:25.249Z,16.37
2022-09-17T17:17:52.846Z,15.30
2022-09-17T17:20:21.173Z,14.60
2022-09-17T17:22:50.593Z,17.73
2022-09-17T17:25:19.794Z,15.77
2022-09-17T17:27:47.456Z,15.70
2022-09-17T17:30:17.250Z,16.03
2022-09-17T17:32:49.821Z,16.97
2022-09-17T17:35:17.433Z,15.67
2022-09-17T17:37:44.958Z,15.13
2022-09-17T17:40:12.593Z,16.60
2022-09-17T17:42:44.065Z,14.20
2022-09-17T17:45:12.227Z,16.37
2022-09-17T17:47:39.837Z,15.53
2022-09-17T17:50:08.566Z,18.27
2022-09-17T17:52:36.412Z,16.50
2022-09-17T17:55:04.212Z,15.37
2022-09-17T17:57:31.757Z,16.50
2022-09-17T18:00:00.634Z,17.33
2022-09-17T18:02:28.342Z,16.57
2022-09-17T18:04:56.005Z,15.57
2022-09-17T18:07:23.513Z,15.30
2022-09-17T18:09:51.049Z,17.80
2022-09-17T18:12:18.561Z,15.73
2022-09-17T18:14:46.107Z,17.90
2022-09-17T18:17:14.978Z,15.03
2022-09-17T18:19:42.529Z,16.50
2022-09-17T18:22:10.737Z,15.60
2022-09-17T18:24:38.263Z,20.60
2022-09-17T18:27:06.057Z,16.70
2022-09-17T18:29:33.577Z,15.50
2022-09-17T18:32:01.126Z,15.90
2022-09-17T18:34:30.034Z,14.80
2022-09-17T18:36:57.618Z,15.67
2022-09-17T18:42:12.678Z,15.07
2022-09-17T18:44:40.194Z,14.43
2022-09-17T18:47:08.073Z,16.80
2022-09-17T18:49:36.928Z,17.80
2022-09-17T18:52:04.605Z,13.80
2022-09-17T18:54:32.142Z,15.40
2022-09-17T18:56:59.681Z,14.70
2022-09-17T18:59:27.217Z,15.20
2022-09-17T19:01:54.816Z,15.07
2022-09-17T19:04:22.850Z,14.50
2022-09-17T19:06:51.714Z,21.27
2022-09-17T19:09:19.798Z,16.33
2022-09-17T19:11:47.363Z,14.10
2022-09-17T19:14:14.949Z,15.83
2022-09-17T19:16:42.501Z,15.00
2022-09-17T19:19:10.042Z,16.23
2022-09-17T19:21:37.558Z,14.17
2022-09-17T19:24:06.790Z,14.53
2022-09-17T19:26:34.348Z,15.50
2022-09-17T19:29:02.006Z,16.10
2022-09-17T19:31:30.131Z,15.50
2022-09-17T19:33:59.509Z,19.57
2022-09-17T19:36:27.252Z,15.97
2022-09-17T19:38:55.514Z,16.17
2022-09-17T19:41:24.485Z,15.07
2022-09-17T19:43:53.004Z,17.20
2022-09-17T19:46:22.319Z,17.90
2022-09-17T19:48:51.605Z,18.70
2022-09-17T19:51:20.082Z,17.03
2022-09-17T19:53:47.640Z,14.90
2022-09-17T19:56:16.955Z,16.17
2022-09-17T19:58:46.061Z,21.67
2022-09-17T20:01:15.083Z,24.27
2022-09-17T20:03:44.821Z,17.20
2022-09-17T20:06:13.826Z,17.43
2022-09-17T20:08:47.074Z,20.27
2022-09-17T20:11:16.354Z,16.93
2022-09-17T20:13:44.323Z,17.57
2022-09-17T20:16:16.814Z,21.33
2022-09-17T20:18:44.755Z,17.23
2022-09-17T20:21:14.010Z,16.50
2022-09-17T20:23:41.613Z,17.13
2022-09-17T20:26:09.852Z,17.00
2022-09-17T20:28:37.403Z,16.57
2022-09-17T20:31:07.089Z,18.40
2022-09-17T20:33:36.059Z,19.90
2022-09-17T20:36:05.920Z,17.33
2022-09-17T20:41:22.486Z,18.27
2022-09-17T20:43:53.190Z,18.80
2022-09-17T20:46:27.554Z,17.77
2022-09-17T20:48:58.605Z,19.03
2022-09-17T20:51:28.003Z,16.57
2022-09-17T20:53:56.975Z,18.50
2022-09-17T20:56:26.778Z,21.27
2022-09-17T20:59:01.369Z,21.07
2022-09-17T21:01:32.632Z,18.73
2022-09-17T21:04:02.820Z,33.13
2022-09-17T21:06:32.246Z,22.50
2022-09-17T21:09:01.024Z,16.63
2022-09-17T21:11:29.868Z,23.13
2022-09-17T21:13:57.562Z,16.33
2022-09-17T21:16:25.618Z,17.87
2022-09-17T21:18:57.562Z,20.27
2022-09-17T21:21:27.025Z,17.13
2022-09-17T21:23:55.181Z,16.33
2022-09-17T21:26:24.812Z,16.03
2022-09-17T21:28:55.122Z,18.93
2022-09-17T21:31:28.403Z,18.23
2022-09-17T21:34:00.371Z,16.47
2022-09-17T21:36:30.958Z,20.53
2022-09-17T21:38:59.827Z,17.07
2022-09-17T21:41:27.898Z,20.97
2022-09-17T21:43:55.798Z,16.97
2022-09-17T21:46:25.249Z,15.67
2022-09-17T21:48:55.831Z,18.83
2022-09-17T21:51:25.310Z,18.63
2022-09-17T21:53:57.020Z,17.73
2022-09-17T21:56:25.157Z,17.93
2022-09-17T21:58:54.582Z,18.57
2022-09-17T22:01:25.924Z,21.67
2022-09-17T22:03:55.421Z,17.63
2022-09-17T22:06:24.790Z,17.87
2022-09-17T22:08:54.637Z,17.00
2022-09-17T22:11:24.515Z,16.60
2022-09-17T22:13:54.613Z,15.73
2022-09-17T22:16:23.507Z,16.00
2022-09-17T22:18:52.258Z,18.10
2022-09-17T22:21:22.386Z,16.07
2022-09-17T22:23:50.730Z,20.37
2022-09-17T22:26:21.732Z,17.03
2022-09-17T22:28:49.909Z,16.97
2022-09-17T22:31:18.196Z,18.53
2022-09-17T22:33:48.341Z,21.17
2022-09-17T22:36:17.909Z,17.43
2022-09-17T22:38:48.715Z,17.63
2022-09-17T22:41:18.205Z,16.60
2022-09-17T22:43:47.490Z,17.80
2022-09-17T22:46:17.797Z,18.87
2022-09-17T22:48:45.994Z,16.07
2022-09-17T22:51:14.814Z,16.13
2022-09-17T22:53:42.945Z,16.40
2022-09-17T22:56:13.818Z,17.73
2022-09-17T22:58:41.442Z,16.67
2022-09-17T23:01:12.405Z,18.43
2022-09-17T23:03:41.213Z,27.03
2022-09-17T23:06:11.109Z,18.50
2022-09-17T23:08:39.067Z,17.37
2022-09-17T23:11:09.167Z,16.20
2022-09-17T23:13:37.035Z,16.30
2022-09-17T23:16:06.347Z,16.00
2022-09-17T23:18:36.562Z,16.80
2022-09-17T23:21:06.947Z,17.33
2022-09-17T23:23:36.085Z,20.27
2022-09-17T23:26:05.118Z,15.93
2022-09-17T23:28:32.798Z,17.90
2022-09-17T23:31:06.757Z,16.10
2022-09-17T23:33:36.418Z,20.50
2022-09-17T23:36:06.318Z,16.83
2022-09-17T23:38:34.170Z,20.23
2022-09-17T23:41:09.614Z,16.53
2022-09-17T23:43:37.170Z,15.90
2022-09-17T23:46:05.053Z,16.17
2022-09-17T23:48:33.010Z,15.97
2022-09-17T23:51:02.342Z,16.27
2022-09-17T23:53:30.996Z,18.43
2022-09-17T23:56:00.245Z,17.57
2022-09-17T23:58:29.753Z,15.80
